createdAt,value
2023-04-24T00:01:53.252Z,39.79
2023-04-24T00:04:21.083Z,39.96
2023-04-24T00:06:54.878Z,40.38
2023-04-24T00:09:22.566Z,40.75
2023-04-24T00:11:49.925Z,41.22
2023-04-24T00:14:17.421Z,41.55
2023-04-24T00:16:45.133Z,41.81
2023-04-24T00:19:13.745Z,40.77
2023-04-24T00:21:42.617Z,40.59
2023-04-24T00:24:10.410Z,42.29
2023-04-24T00:26:38.041Z,43.23
2023-04-24T00:29:05.728Z,44.20
2023-04-24T00:31:35.882Z,44.41
2023-04-24T00:34:04.206Z,43.16
2023-04-24T00:36:31.980Z,42.26
2023-04-24T00:38:59.846Z,42.84
2023-04-24T00:41:27.657Z,42.59
2023-04-24T00:43:55.070Z,42.24
2023-04-24T00:46:23.024Z,41.94
2023-04-24T00:48:51.292Z,41.94
2023-04-24T00:51:18.987Z,41.67
2023-04-24T00:53:46.753Z,42.13
2023-04-24T00:56:14.379Z,41.55
2023-04-24T00:58:42.750Z,41.58
2023-04-24T01:01:12.579Z,41.55
2023-04-24T01:03:41.665Z,41.50
2023-04-24T01:06:10.559Z,41.71
2023-04-24T01:08:39.174Z,41.60
2023-04-24T01:11:06.906Z,41.69
2023-04-24T01:13:34.923Z,41.39
2023-04-24T01:16:04.224Z,41.57
2023-04-24T01:18:33.259Z,41.45
2023-04-24T01:21:05.092Z,41.49
2023-04-24T01:23:32.933Z,41.73
2023-04-24T01:26:00.972Z,42.20
2023-04-24T01:28:28.482Z,42.42
2023-04-24T01:30:56.946Z,42.99
2023-04-24T01:33:24.410Z,42.78
2023-04-24T01:35:52.162Z,42.71
2023-04-24T01:38:19.903Z,42.94
2023-04-24T01:40:47.524Z,43.33
2023-04-24T01:43:15.429Z,43.73
2023-04-24T01:45:43.208Z,43.87
2023-04-24T01:48:10.877Z,44.55
2023-04-24T01:50:38.258Z,44.89
2023-04-24T01:53:06.441Z,45.25
2023-04-24T01:55:34.403Z,45.78
2023-04-24T01:58:03.175Z,45.96
2023-04-24T02:00:31.188Z,46.52
2023-04-24T02:02:59.076Z,46.41
2023-04-24T02:05:27.178Z,46.52
2023-04-24T02:07:54.842Z,46.55
2023-04-24T02:10:22.916Z,46.60
2023-04-24T02:12:50.628Z,46.06
2023-04-24T02:15:18.895Z,46.29
2023-04-24T02:17:46.376Z,46.47
2023-04-24T02:20:14.594Z,46.67
2023-04-24T02:22:42.096Z,46.76
2023-04-24T02:25:09.839Z,47.17
2023-04-24T02:27:37.560Z,47.19
2023-04-24T02:30:08.459Z,47.37
2023-04-24T02:32:35.887Z,47.74
2023-04-24T02:35:03.747Z,48.06
2023-04-24T02:37:31.446Z,48.37
2023-04-24T02:39:58.831Z,48.16
2023-04-24T02:42:26.743Z,47.84
2023-04-24T02:44:54.251Z,47.97
2023-04-24T02:47:21.747Z,48.04
2023-04-24T02:49:50.717Z,48.09
2023-04-24T02:52:18.235Z,48.24
2023-04-24T02:54:45.838Z,48.21
2023-04-24T02:57:13.575Z,48.33
2023-04-24T02:59:41.595Z,48.66
2023-04-24T03:02:09.114Z,48.82
2023-04-24T03:04:37.530Z,48.77
2023-04-24T03:07:05.543Z,48.62
2023-04-24T03:09:33.127Z,48.33
2023-04-24T03:12:01.392Z,48.01
2023-04-24T03:14:30.743Z,48.13
2023-04-24T03:16:58.348Z,47.99
2023-04-24T03:19:26.037Z,48.09
2023-04-24T03:21:54.259Z,48.06
2023-04-24T03:24:21.772Z,48.31
2023-04-24T03:26:49.618Z,48.69
2023-04-24T03:29:17.770Z,48.71
2023-04-24T03:31:45.434Z,48.72
2023-04-24T03:34:13.270Z,49.00
2023-04-24T03:36:40.801Z,49.41
2023-04-24T03:39:08.681Z,49.63
2023-04-24T03:41:36.488Z,49.85
2023-04-24T03:44:04.951Z,49.93
2023-04-24T03:46:32.387Z,50.10
2023-04-24T03:49:00.344Z,49.66
2023-04-24T03:51:29.013Z,49.59
2023-04-24T03:53:56.912Z,49.06
2023-04-24T03:56:25.107Z,49.34
2023-04-24T03:58:53.195Z,48.90
2023-04-24T04:01:21.793Z,49.09
2023-04-24T04:03:50.126Z,49.03
2023-04-24T04:06:19.217Z,49.05
2023-04-24T04:08:47.266Z,49.29
2023-04-24T04:11:15.203Z,49.44
2023-04-24T04:13:42.613Z,49.94
2023-04-24T04:16:10.311Z,50.55
2023-04-24T04:18:38.664Z,50.49
2023-04-24T04:21:06.618Z,50.34
2023-04-24T04:23:34.851Z,50.42
2023-04-24T04:26:04.301Z,50.82
2023-04-24T04:28:35.841Z,50.92
2023-04-24T04:31:03.511Z,50.65
2023-04-24T04:33:31.991Z,50.41
2023-04-24T04:35:59.441Z,50.07
2023-04-24T04:38:30.903Z,50.14
2023-04-24T04:40:58.612Z,50.53
2023-04-24T04:43:27.153Z,50.36
2023-04-24T04:45:57.084Z,50.29
2023-04-24T04:48:24.990Z,50.22
2023-04-24T04:50:52.749Z,49.96
2023-04-24T04:53:21.674Z,50.42
2023-04-24T04:55:49.100Z,50.56
2023-04-24T04:58:16.671Z,50.71
2023-04-24T05:00:45.124Z,50.57
2023-04-24T05:03:20.118Z,50.57
2023-04-24T05:05:49.415Z,50.44
2023-04-24T05:08:26.441Z,50.26
2023-04-24T05:10:56.391Z,50.28
2023-04-24T05:15:55.568Z,50.09
2023-04-24T05:18:23.625Z,50.38
2023-04-24T05:20:51.116Z,50.05
2023-04-24T05:23:19.112Z,50.24
2023-04-24T05:25:47.735Z,50.14
2023-04-24T05:28:16.357Z,50.39
2023-04-24T05:30:44.875Z,50.56
2023-04-24T05:33:13.328Z,51.11
2023-04-24T05:35:46.562Z,51.62
2023-04-24T05:38:14.910Z,51.29
2023-04-24T05:40:42.386Z,51.91
2023-04-24T05:43:09.831Z,51.52
2023-04-24T05:45:37.820Z,51.38
2023-04-24T05:48:05.577Z,51.33
2023-04-24T05:50:35.434Z,50.79
2023-04-24T05:53:05.099Z,50.39
2023-04-24T05:55:34.203Z,50.48
2023-04-24T05:58:02.346Z,50.49
2023-04-24T06:00:30.865Z,50.26
2023-04-24T06:03:00.064Z,49.81
2023-04-24T06:05:28.448Z,49.98
2023-04-24T06:07:55.892Z,49.13
2023-04-24T06:10:24.288Z,49.45
2023-04-24T06:12:51.748Z,49.20
2023-04-24T06:15:19.314Z,49.57
2023-04-24T06:17:47.596Z,50.80
2023-04-24T06:20:16.446Z,51.61
2023-04-24T06:22:43.874Z,51.76
2023-04-24T06:25:11.686Z,51.82
2023-04-24T06:27:39.481Z,51.83
2023-04-24T06:30:09.553Z,51.74
2023-04-24T06:32:37.258Z,51.43
2023-04-24T06:35:05.272Z,51.82
2023-04-24T06:37:33.347Z,51.73
2023-04-24T06:40:01.125Z,51.32
2023-04-24T06:42:28.649Z,51.37
2023-04-24T06:44:56.626Z,52.48
2023-04-24T06:47:24.393Z,51.46
2023-04-24T06:49:53.435Z,50.84
2023-04-24T06:52:20.927Z,50.50
2023-04-24T06:54:48.655Z,50.03
2023-04-24T06:57:17.251Z,49.64
2023-04-24T06:59:45.119Z,49.77
2023-04-24T07:02:12.999Z,49.08
2023-04-24T07:04:40.937Z,49.57
2023-04-24T07:07:10.537Z,49.64
2023-04-24T07:09:39.806Z,49.17
2023-04-24T07:12:08.439Z,48.94
2023-04-24T07:14:35.854Z,48.83
2023-04-24T07:17:04.727Z,48.82
2023-04-24T07:19:32.121Z,48.76
2023-04-24T07:21:59.667Z,49.20
2023-04-24T07:24:30.503Z,48.86
2023-04-24T07:26:58.100Z,49.07
2023-04-24T07:29:25.805Z,49.07
2023-04-24T07:31:55.104Z,49.76
2023-04-24T07:34:22.611Z,48.70
2023-04-24T07:36:50.000Z,48.57
2023-04-24T07:39:19.085Z,48.34
2023-04-24T07:41:46.451Z,48.11
2023-04-24T07:44:13.909Z,48.39
2023-04-24T07:46:41.777Z,48.33
2023-04-24T07:49:13.762Z,48.27
2023-04-24T07:51:42.610Z,47.91
2023-04-24T07:54:10.644Z,47.68
2023-04-24T07:56:40.279Z,48.18
2023-04-24T07:59:08.254Z,47.61
2023-04-24T08:01:35.965Z,47.25
2023-04-24T08:04:03.800Z,47.72
2023-04-24T08:06:32.905Z,47.18
2023-04-24T08:09:01.038Z,47.25
2023-04-24T08:11:28.826Z,47.39
2023-04-24T08:13:56.350Z,48.03
2023-04-24T08:16:25.221Z,47.83
2023-04-24T08:18:53.943Z,48.70
2023-04-24T08:21:21.769Z,48.36
2023-04-24T08:23:49.185Z,48.74
2023-04-24T08:26:17.753Z,47.90
2023-04-24T08:28:45.456Z,46.80
2023-04-24T08:31:12.933Z,47.09
2023-04-24T08:33:42.059Z,47.42
2023-04-24T08:36:09.534Z,47.24
2023-04-24T08:38:36.966Z,46.13
2023-04-24T08:41:05.977Z,45.76
2023-04-24T08:43:34.245Z,45.33
2023-04-24T08:46:02.224Z,45.74
2023-04-24T08:48:32.364Z,45.91
2023-04-24T08:51:00.333Z,46.11
2023-04-24T08:53:27.970Z,44.99
2023-04-24T08:55:56.944Z,45.46
2023-04-24T08:58:27.322Z,45.01
2023-04-24T09:00:59.505Z,43.82
2023-04-24T09:03:29.126Z,43.79
2023-04-24T09:05:56.947Z,42.68
2023-04-24T09:08:26.956Z,42.25
2023-04-24T09:10:54.689Z,42.06
2023-04-24T09:13:22.117Z,41.68
2023-04-24T09:15:49.531Z,41.48
2023-04-24T09:18:18.477Z,41.41
2023-04-24T09:21:02.748Z,41.12
2023-04-24T09:23:31.926Z,40.64
2023-04-24T09:26:01.310Z,41.24
2023-04-24T09:28:36.187Z,41.21
2023-04-24T09:31:07.861Z,41.68
2023-04-24T09:33:35.640Z,41.26
2023-04-24T09:36:03.782Z,41.49
2023-04-24T09:38:40.769Z,41.78
2023-04-24T09:41:09.304Z,41.99
2023-04-24T09:43:36.972Z,41.99
2023-04-24T09:46:08.679Z,41.78
2023-04-24T09:48:38.280Z,42.25
2023-04-24T09:51:12.301Z,42.55
2023-04-24T09:53:43.036Z,42.14
2023-04-24T09:56:13.455Z,41.14
2023-04-24T09:58:41.196Z,40.63
2023-04-24T10:01:08.739Z,40.74
2023-04-24T10:03:37.588Z,40.53
2023-04-24T10:06:10.248Z,40.74
2023-04-24T10:08:38.628Z,41.05
2023-04-24T10:11:07.262Z,41.37
2023-04-24T10:13:34.933Z,40.57
2023-04-24T10:16:03.094Z,41.09
2023-04-24T10:18:31.412Z,41.19
2023-04-24T10:21:00.945Z,41.34
2023-04-24T10:23:29.210Z,41.05
2023-04-24T10:25:56.905Z,40.55
2023-04-24T10:28:25.529Z,40.69
2023-04-24T10:30:55.992Z,40.70
2023-04-24T10:33:24.079Z,40.82
2023-04-24T10:35:52.147Z,40.65
2023-04-24T10:38:25.754Z,41.25
2023-04-24T10:40:58.798Z,40.57
2023-04-24T10:43:26.481Z,40.40
2023-04-24T10:46:04.376Z,40.91
2023-04-24T10:48:33.461Z,40.97
2023-04-24T10:51:00.902Z,40.99
2023-04-24T10:53:29.873Z,41.80
2023-04-24T10:56:08.676Z,42.22
2023-04-24T10:58:41.210Z,41.64
2023-04-24T11:01:09.079Z,41.87
2023-04-24T11:03:37.650Z,41.81
2023-04-24T11:06:06.483Z,42.15
2023-04-24T11:08:41.186Z,40.80
2023-04-24T11:11:15.740Z,39.63
2023-04-24T11:13:55.917Z,37.85
2023-04-24T11:16:35.701Z,37.84
2023-04-24T11:19:09.618Z,39.03
2023-04-24T11:21:48.198Z,38.42
2023-04-24T11:24:32.269Z,37.93
2023-04-24T11:27:05.375Z,37.36
2023-04-24T11:29:50.924Z,37.14
2023-04-24T11:32:28.820Z,37.53
2023-04-24T11:34:57.928Z,39.14
2023-04-24T11:37:28.003Z,37.92
2023-04-24T11:39:58.125Z,37.38
2023-04-24T11:42:26.619Z,37.43
2023-04-24T11:47:31.148Z,36.13
2023-04-24T11:49:59.815Z,36.44
2023-04-24T11:52:28.285Z,35.51
2023-04-24T11:54:55.800Z,34.44
2023-04-24T11:57:27.451Z,34.06
2023-04-24T11:59:55.026Z,33.25
2023-04-24T12:02:24.215Z,33.58
2023-04-24T12:04:53.048Z,33.89
2023-04-24T12:07:21.060Z,35.16
2023-04-24T12:09:52.540Z,34.05
2023-04-24T12:12:20.780Z,33.65
2023-04-24T12:14:53.928Z,34.82
2023-04-24T12:17:47.509Z,34.71
2023-04-24T12:20:15.777Z,34.70
2023-04-24T12:22:48.065Z,35.27
2023-04-24T12:25:16.156Z,36.03
2023-04-24T12:27:45.117Z,35.84
2023-04-24T12:30:15.136Z,35.61
2023-04-24T12:32:47.952Z,35.94
2023-04-24T12:35:21.426Z,36.65
2023-04-24T12:37:48.916Z,37.07
2023-04-24T12:40:17.793Z,36.42
2023-04-24T12:42:46.192Z,36.41
2023-04-24T12:45:14.496Z,35.88
2023-04-24T12:47:43.364Z,36.13
2023-04-24T12:50:12.122Z,35.51
2023-04-24T12:52:40.124Z,35.54
2023-04-24T12:55:11.298Z,35.53
2023-04-24T12:57:40.004Z,35.78
2023-04-24T13:00:08.994Z,36.76
2023-04-24T13:02:36.673Z,36.97
2023-04-24T13:05:04.474Z,37.65
2023-04-24T13:07:34.320Z,41.61
2023-04-24T13:10:01.810Z,43.20
2023-04-24T13:12:29.397Z,45.05
2023-04-24T13:14:57.206Z,47.12
2023-04-24T13:17:24.657Z,46.01
2023-04-24T13:19:52.630Z,45.75
2023-04-24T13:22:21.177Z,46.09
2023-04-24T13:24:51.821Z,45.38
2023-04-24T13:27:19.554Z,45.37
2023-04-24T13:29:47.595Z,46.68
2023-04-24T13:32:15.093Z,47.37
2023-04-24T13:34:42.787Z,50.02
2023-04-24T13:37:10.752Z,51.20
2023-04-24T13:39:38.291Z,53.05
2023-04-24T13:42:06.003Z,53.02
2023-04-24T13:44:33.805Z,54.25
2023-04-24T13:47:01.283Z,55.53
2023-04-24T13:49:28.736Z,56.17
2023-04-24T13:51:57.065Z,56.76
2023-04-24T13:54:26.861Z,57.36
2023-04-24T13:56:54.603Z,57.68
2023-04-24T13:59:22.722Z,58.20
2023-04-24T14:01:50.358Z,58.84
2023-04-24T14:04:18.375Z,59.40
2023-04-24T14:06:45.944Z,59.64
2023-04-24T14:09:13.901Z,59.80
2023-04-24T14:11:41.751Z,60.03
2023-04-24T14:14:09.298Z,60.09
2023-04-24T14:16:36.725Z,59.91
2023-04-24T14:19:05.978Z,59.33
2023-04-24T14:21:33.964Z,59.37
2023-04-24T14:24:01.658Z,59.92
2023-04-24T14:26:29.429Z,60.56
2023-04-24T14:29:07.185Z,60.18
2023-04-24T14:31:39.118Z,58.52
2023-04-24T14:34:06.551Z,59.49
2023-04-24T14:36:33.913Z,58.70
2023-04-24T14:39:04.350Z,59.23
2023-04-24T14:41:32.491Z,59.27
2023-04-24T14:43:59.875Z,58.83
2023-04-24T14:46:27.572Z,58.19
2023-04-24T14:48:55.001Z,58.65
2023-04-24T14:51:22.480Z,60.18
2023-04-24T14:53:50.262Z,59.54
2023-04-24T14:56:17.680Z,60.01
2023-04-24T14:58:45.167Z,60.29
2023-04-24T15:01:12.936Z,60.23
2023-04-24T15:03:40.560Z,62.03
2023-04-24T15:06:08.216Z,60.08
2023-04-24T15:08:35.900Z,60.52
2023-04-24T15:11:03.268Z,59.89
2023-04-24T15:13:30.742Z,58.95
2023-04-24T15:15:58.439Z,59.16
2023-04-24T15:18:25.997Z,58.72
2023-04-24T15:20:53.668Z,59.09
2023-04-24T15:23:21.440Z,58.33
2023-04-24T15:25:49.089Z,58.08
2023-04-24T15:28:17.223Z,57.50
2023-04-24T15:30:44.951Z,57.48
2023-04-24T15:33:12.467Z,57.46
2023-04-24T15:35:41.130Z,57.93
2023-04-24T15:38:09.013Z,58.32
2023-04-24T15:40:38.022Z,57.90
2023-04-24T15:43:05.588Z,57.77
2023-04-24T15:45:34.117Z,57.84
2023-04-24T15:48:01.732Z,57.88
2023-04-24T15:50:29.366Z,57.08
2023-04-24T15:52:57.236Z,57.25
2023-04-24T15:55:35.850Z,57.83
2023-04-24T15:58:05.362Z,57.67
2023-04-24T16:00:34.431Z,57.35
2023-04-24T16:03:08.452Z,57.80
2023-04-24T16:05:37.428Z,58.00
2023-04-24T16:08:05.226Z,58.01
2023-04-24T16:10:33.268Z,58.77
2023-04-24T16:13:02.632Z,59.09
2023-04-24T16:15:30.736Z,58.87
2023-04-24T16:17:58.590Z,59.45
2023-04-24T16:20:26.102Z,58.97
2023-04-24T16:22:53.812Z,58.82
2023-04-24T16:25:21.350Z,58.91
2023-04-24T16:27:50.941Z,58.96
2023-04-24T16:30:19.488Z,59.14
2023-04-24T16:32:47.063Z,58.62
2023-04-24T16:35:14.597Z,58.68
2023-04-24T16:37:42.476Z,58.92
2023-04-24T16:40:11.117Z,58.44
2023-04-24T16:42:39.632Z,58.66
2023-04-24T16:45:08.099Z,59.36
2023-04-24T16:47:36.178Z,59.21
2023-04-24T16:50:04.281Z,58.99
2023-04-24T16:52:32.031Z,59.09
2023-04-24T16:55:00.008Z,59.54
2023-04-24T16:57:27.550Z,59.32
2023-04-24T16:59:55.402Z,59.10
2023-04-24T17:02:22.868Z,60.17
2023-04-24T17:04:50.418Z,60.35
2023-04-24T17:07:18.142Z,60.22
2023-04-24T17:09:45.695Z,59.57
2023-04-24T17:12:13.080Z,59.50
2023-04-24T17:14:40.834Z,59.56
2023-04-24T17:17:08.253Z,60.09
2023-04-24T17:19:35.820Z,59.94
2023-04-24T17:22:06.317Z,59.78
2023-04-24T17:24:33.972Z,60.12
2023-04-24T17:27:07.985Z,60.20
2023-04-24T17:29:42.345Z,60.61
2023-04-24T17:32:09.941Z,61.18
2023-04-24T17:34:37.472Z,61.50
2023-04-24T17:37:05.155Z,61.32
2023-04-24T17:39:32.693Z,61.54
2023-04-24T17:42:01.118Z,61.20
2023-04-24T17:44:28.830Z,61.06
2023-04-24T17:46:56.414Z,60.94
2023-04-24T17:49:23.962Z,60.73
2023-04-24T17:51:51.711Z,61.11
2023-04-24T17:54:19.142Z,61.60
2023-04-24T17:56:46.587Z,60.85
2023-04-24T17:59:14.402Z,61.09
2023-04-24T18:01:42.618Z,61.99
2023-04-24T18:04:11.255Z,61.02
2023-04-24T18:06:39.784Z,61.03
2023-04-24T18:09:08.332Z,60.84
2023-04-24T18:11:36.046Z,60.48
2023-04-24T18:14:03.493Z,60.27
2023-04-24T18:16:30.920Z,59.60
2023-04-24T18:18:58.669Z,59.08
2023-04-24T18:21:26.491Z,58.99
2023-04-24T18:23:55.219Z,59.13
2023-04-24T18:26:22.938Z,58.75
2023-04-24T18:28:50.707Z,57.96
2023-04-24T18:31:18.319Z,58.65
2023-04-24T18:33:46.013Z,58.41
2023-04-24T18:36:13.484Z,58.67
2023-04-24T18:38:40.989Z,58.98
2023-04-24T18:41:08.784Z,59.13
2023-04-24T18:43:36.341Z,59.24
2023-04-24T18:46:03.878Z,58.95
2023-04-24T18:48:31.656Z,58.96
2023-04-24T18:51:00.069Z,58.32
2023-04-24T18:53:27.779Z,58.32
2023-04-24T18:55:55.956Z,58.40
2023-04-24T18:58:23.377Z,58.54
2023-04-24T19:00:51.044Z,57.38
2023-04-24T19:03:19.318Z,58.09
2023-04-24T19:05:47.119Z,58.21
2023-04-24T19:08:14.892Z,58.21
2023-04-24T19:10:42.910Z,57.88
2023-04-24T19:13:10.679Z,58.25
2023-04-24T19:15:38.167Z,58.64
2023-04-24T19:18:06.096Z,57.96
2023-04-24T19:20:33.634Z,58.60
2023-04-24T19:23:01.033Z,58.64
2023-04-24T19:25:28.839Z,58.43
2023-04-24T19:27:57.617Z,58.91
2023-04-24T19:30:25.208Z,58.69
2023-04-24T19:32:52.962Z,58.99
2023-04-24T19:35:20.751Z,58.75
2023-04-24T19:37:48.154Z,58.39
2023-04-24T19:40:15.996Z,58.47
2023-04-24T19:42:44.591Z,58.69
2023-04-24T19:45:13.009Z,58.63
2023-04-24T19:47:40.887Z,58.46
2023-04-24T19:50:09.188Z,57.74
2023-04-24T19:52:36.823Z,58.46
2023-04-24T19:55:04.880Z,58.64
2023-04-24T19:57:32.342Z,58.60
2023-04-24T20:00:00.029Z,58.45
2023-04-24T20:02:28.049Z,58.45
2023-04-24T20:04:56.165Z,58.94
2023-04-24T20:07:23.673Z,58.85
2023-04-24T20:09:51.192Z,58.71
2023-04-24T20:12:19.484Z,58.82
2023-04-24T20:14:47.928Z,58.85
2023-04-24T20:17:16.183Z,58.62
2023-04-24T20:19:44.181Z,58.74
2023-04-24T20:22:13.283Z,58.71
2023-04-24T20:24:41.117Z,58.93
2023-04-24T20:27:08.937Z,59.35
2023-04-24T20:29:36.447Z,59.39
2023-04-24T20:32:03.982Z,59.34
2023-04-24T20:34:31.699Z,59.51
2023-04-24T20:36:59.277Z,59.07
2023-04-24T20:39:26.726Z,59.12
2023-04-24T20:41:54.466Z,59.38
2023-04-24T20:44:22.296Z,59.19
2023-04-24T20:46:49.748Z,59.15
2023-04-24T20:49:17.476Z,58.54
2023-04-24T20:51:44.871Z,58.94
2023-04-24T20:54:12.330Z,58.89
2023-04-24T20:56:40.211Z,58.91
2023-04-24T20:59:07.606Z,58.90
2023-04-24T21:01:35.049Z,58.46
2023-04-24T21:04:03.427Z,57.52
2023-04-24T21:06:32.026Z,58.05
2023-04-24T21:08:59.489Z,58.35
2023-04-24T21:11:27.381Z,58.04
2023-04-24T21:13:54.796Z,58.39
2023-04-24T21:16:22.342Z,58.44
2023-04-24T21:18:50.059Z,57.54
2023-04-24T21:21:17.470Z,57.58
2023-04-24T21:23:44.851Z,57.89
2023-04-24T21:26:12.607Z,57.93
2023-04-24T21:28:40.558Z,57.74
2023-04-24T21:31:08.235Z,58.19
2023-04-24T21:33:35.950Z,57.98
2023-04-24T21:36:03.437Z,58.04
2023-04-24T21:38:31.021Z,57.97
2023-04-24T21:40:58.764Z,57.92
2023-04-24T21:43:37.223Z,57.98
2023-04-24T21:46:09.480Z,58.12
2023-04-24T21:48:36.927Z,58.11
2023-04-24T21:51:04.361Z,57.77
2023-04-24T21:53:32.034Z,57.76
2023-04-24T21:55:59.695Z,58.27
2023-04-24T21:58:27.100Z,58.42
2023-04-24T22:00:54.840Z,58.07
2023-04-24T22:03:22.727Z,58.13
2023-04-24T22:05:50.354Z,57.77
2023-04-24T22:08:17.824Z,58.58
2023-04-24T22:10:46.020Z,59.50
2023-04-24T22:13:13.541Z,59.39
2023-04-24T22:15:41.087Z,59.73
2023-04-24T22:18:09.327Z,59.36
2023-04-24T22:20:37.573Z,60.72
2023-04-24T22:23:04.984Z,61.04
2023-04-24T22:25:32.834Z,61.09
2023-04-24T22:28:00.234Z,61.42
2023-04-24T22:30:27.678Z,61.60
2023-04-24T22:32:55.408Z,61.48
2023-04-24T22:35:23.025Z,61.75
2023-04-24T22:37:56.591Z,62.74
2023-04-24T22:40:25.222Z,61.60
2023-04-24T22:42:52.962Z,62.91
2023-04-24T22:45:23.576Z,62.14
2023-04-24T22:47:51.600Z,61.70
2023-04-24T22:50:20.282Z,61.88
2023-04-24T22:52:47.765Z,61.96
2023-04-24T22:55:15.508Z,61.97
2023-04-24T22:57:42.969Z,61.97
2023-04-24T23:00:12.717Z,62.44
2023-04-24T23:02:41.249Z,62.19
2023-04-24T23:05:10.093Z,61.76
2023-04-24T23:10:06.938Z,62.07
2023-04-24T23:12:34.394Z,61.56
2023-04-24T23:15:01.872Z,61.95
2023-04-24T23:17:29.612Z,61.97
2023-04-24T23:19:57.097Z,61.81
2023-04-24T23:22:24.781Z,61.94
2023-04-24T23:24:52.436Z,61.04
2023-04-24T23:27:20.020Z,61.70
2023-04-24T23:29:47.505Z,61.26
2023-04-24T23:32:15.302Z,60.77
2023-04-24T23:34:42.711Z,59.53
2023-04-24T23:37:10.179Z,59.84
2023-04-24T23:39:37.932Z,59.88
2023-04-24T23:42:05.413Z,60.06
2023-04-24T23:44:32.862Z,59.37
2023-04-24T23:47:00.525Z,59.47
2023-04-24T23:49:27.938Z,59.82
2023-04-24T23:51:56.240Z,59.51
2023-04-24T23:54:24.069Z,59.86
2023-04-24T23:56:51.453Z,59.49
2023-04-24T23:59:21.497Z,59.90
